createdAt,value
2018-03-04T00:00:39.151Z,45.4
2018-03-04T00:01:41.552Z,45.3
2018-03-04T00:02:43.969Z,45.3
2018-03-04T00:03:46.685Z,45.5
2018-03-04T00:04:49.097Z,45.5
2018-03-04T00:05:51.511Z,45.4
2018-03-04T00:06:53.930Z,45.4
2018-03-04T00:07:56.348Z,45.4
2018-03-04T00:08:58.749Z,45.5
2018-03-04T00:10:01.156Z,45.5
2018-03-04T00:11:03.886Z,45.5
2018-03-04T00:12:06.586Z,45.5
2018-03-04T00:13:08.997Z,45.4
2018-03-04T00:14:11.698Z,45.5
2018-03-04T00:15:14.110Z,45.5
2018-03-04T00:16:16.527Z,45.6
2018-03-04T00:17:18.945Z,45.6
2018-03-04T00:18:21.341Z,45.6
2018-03-04T00:19:23.762Z,45.5
2018-03-04T00:20:26.167Z,45.5
2018-03-04T00:21:28.584Z,45.4
2018-03-04T00:22:31.006Z,45.4
2018-03-04T00:23:33.699Z,45.3
2018-03-04T00:24:36.118Z,45.4
2018-03-04T00:25:38.531Z,45.4
2018-03-04T00:26:40.936Z,45.6
2018-03-04T00:27:43.380Z,45.5
2018-03-04T00:28:46.067Z,45.6
2018-03-04T00:29:48.470Z,45.5
2018-03-04T00:30:51.190Z,45.5
2018-03-04T00:31:53.598Z,45.5
2018-03-04T00:32:56.296Z,45.6
2018-03-04T00:33:58.711Z,45.6
2018-03-04T00:35:01.134Z,45.5
2018-03-04T00:36:03.821Z,45.6
2018-03-04T00:37:06.235Z,45.7
2018-03-04T00:38:08.641Z,45.6
2018-03-04T00:39:11.051Z,45.6
2018-03-04T00:40:13.464Z,45.6
2018-03-04T00:41:15.879Z,45.6
2018-03-04T00:42:18.276Z,45.6
2018-03-04T00:43:20.981Z,45.7
2018-03-04T00:44:23.398Z,45.7
2018-03-04T00:45:25.812Z,45.7
2018-03-04T00:46:28.217Z,45.7
2018-03-04T00:47:30.625Z,45.7
2018-03-04T00:48:33.026Z,45.6
2018-03-04T00:49:35.460Z,45.7
2018-03-04T00:50:37.868Z,45.6
2018-03-04T00:51:40.280Z,45.5
2018-03-04T00:52:42.680Z,45.6
2018-03-04T00:53:45.382Z,45.7
2018-03-04T00:54:47.788Z,45.7
2018-03-04T00:55:50.204Z,45.7
2018-03-04T00:56:52.609Z,45.8
2018-03-04T00:57:55.302Z,45.7
2018-03-04T00:58:57.714Z,45.7
2018-03-04T01:00:00.430Z,45.8
2018-03-04T01:01:03.138Z,45.7
2018-03-04T01:02:05.844Z,45.7
2018-03-04T01:03:08.260Z,45.8
2018-03-04T01:04:10.666Z,45.6
2018-03-04T01:05:13.073Z,45.6
2018-03-04T01:06:15.491Z,45.7
2018-03-04T01:07:17.903Z,45.8
2018-03-04T01:08:20.300Z,45.8
2018-03-04T01:09:22.717Z,45.9
2018-03-04T01:10:25.136Z,45.9
2018-03-04T01:11:27.550Z,45.9
2018-03-04T01:12:29.963Z,46
2018-03-04T01:13:32.380Z,46
2018-03-04T01:14:34.790Z,46
2018-03-04T01:15:37.206Z,46
2018-03-04T01:16:39.618Z,45.9
2018-03-04T01:17:42.013Z,46
2018-03-04T01:18:44.439Z,46
2018-03-04T01:19:47.145Z,45.9
2018-03-04T01:20:49.546Z,45.9
2018-03-04T01:21:51.958Z,45.9
2018-03-04T01:22:54.359Z,46
2018-03-04T01:23:57.048Z,46
2018-03-04T01:24:59.779Z,46
2018-03-04T01:26:02.193Z,46
2018-03-04T01:27:04.600Z,46.1
2018-03-04T01:28:07.020Z,46
2018-03-04T01:29:09.718Z,46
2018-03-04T01:30:12.133Z,45.9
2018-03-04T01:31:14.842Z,46
2018-03-04T01:32:17.818Z,46
2018-03-04T01:33:20.222Z,46
2018-03-04T01:34:22.638Z,46
2018-03-04T01:35:25.058Z,46
2018-03-04T01:36:27.455Z,45.9
2018-03-04T01:37:30.164Z,46
2018-03-04T01:38:32.872Z,46
2018-03-04T01:39:35.288Z,46
2018-03-04T01:40:38.296Z,46
2018-03-04T01:41:41.015Z,46
2018-03-04T01:42:43.422Z,46
2018-03-04T01:43:45.848Z,46
2018-03-04T01:44:48.257Z,46
2018-03-04T01:45:50.654Z,46
2018-03-04T01:46:53.068Z,46
2018-03-04T01:47:55.475Z,46.1
2018-03-04T01:48:57.899Z,46.1
2018-03-04T01:50:00.312Z,46
2018-03-04T01:51:02.711Z,46.2
2018-03-04T01:52:05.412Z,46.1
2018-03-04T01:53:07.810Z,46.3
2018-03-04T01:54:10.222Z,46.2
2018-03-04T01:55:12.638Z,46.1
2018-03-04T01:56:15.332Z,46.1
2018-03-04T01:57:17.749Z,46.1
2018-03-04T01:58:20.176Z,46
2018-03-04T01:59:22.590Z,46
2018-03-04T02:00:25.304Z,45.9
2018-03-04T02:01:27.709Z,45.9
2018-03-04T02:02:30.120Z,45.9
2018-03-04T02:03:32.534Z,45.7
2018-03-04T02:04:35.100Z,45.9
2018-03-04T02:05:37.514Z,45.8
2018-03-04T02:06:39.922Z,45.9
2018-03-04T02:07:42.335Z,46
2018-03-04T02:08:44.735Z,46
2018-03-04T02:09:47.155Z,46
2018-03-04T02:10:49.558Z,46
2018-03-04T02:11:51.962Z,46
2018-03-04T02:12:54.374Z,46
2018-03-04T02:13:56.785Z,46
2018-03-04T02:14:59.195Z,46.1
2018-03-04T02:16:02.190Z,46
2018-03-04T02:17:04.583Z,46.1
2018-03-04T02:18:06.994Z,46.2
2018-03-04T02:19:09.409Z,46.2
2018-03-04T02:20:12.119Z,46.2
2018-03-04T02:21:14.830Z,46.2
2018-03-04T02:22:17.547Z,46.2
2018-03-04T02:23:19.951Z,46.1
2018-03-04T02:24:22.652Z,46.1
2018-03-04T02:25:25.062Z,46.2
2018-03-04T02:26:27.766Z,46.1
2018-03-04T02:27:30.172Z,46.3
2018-03-04T02:28:32.590Z,46.4
2018-03-04T02:29:34.991Z,46.3
2018-03-04T02:30:37.689Z,46.4
2018-03-04T02:31:40.092Z,46.4
2018-03-04T02:32:42.514Z,46.3
2018-03-04T02:33:45.493Z,46.4
2018-03-04T02:34:48.200Z,46.4
2018-03-04T02:35:50.609Z,46.3
2018-03-04T02:36:53.020Z,46.4
2018-03-04T02:37:55.431Z,46.2
2018-03-04T02:38:57.844Z,46.3
2018-03-04T02:40:00.539Z,46.3
2018-03-04T02:41:02.947Z,46.3
2018-03-04T02:42:05.372Z,46.3
2018-03-04T02:43:07.785Z,46.3
2018-03-04T02:44:10.193Z,46.4
2018-03-04T02:45:12.611Z,46.4
2018-03-04T02:46:15.305Z,46.5
2018-03-04T02:47:17.713Z,46.4
2018-03-04T02:48:20.409Z,46.4
2018-03-04T02:49:23.104Z,46.4
2018-03-04T02:50:25.803Z,46.4
2018-03-04T02:51:28.802Z,46.4
2018-03-04T02:52:31.217Z,46.5
2018-03-04T02:53:33.921Z,46.6
2018-03-04T02:54:36.328Z,46.5
2018-03-04T02:55:38.737Z,46.4
2018-03-04T02:56:41.152Z,46.5
2018-03-04T02:57:43.555Z,46.4
2018-03-04T02:58:46.279Z,46.5
2018-03-04T02:59:49.039Z,46.4
2018-03-04T03:00:52.048Z,46.4
2018-03-04T03:01:54.461Z,46.5
2018-03-04T03:02:57.158Z,46.5
2018-03-04T03:03:59.568Z,46.5
2018-03-04T03:05:01.977Z,46.5
2018-03-04T03:06:04.689Z,46.6
2018-03-04T03:07:07.113Z,46.6
2018-03-04T03:08:09.814Z,46.5
2018-03-04T03:09:12.503Z,46.6
2018-03-04T03:10:14.916Z,46.5
2018-03-04T03:11:17.331Z,46.6
2018-03-04T03:12:19.739Z,46.7
2018-03-04T03:13:22.439Z,46.6
2018-03-04T03:14:25.132Z,46.6
2018-03-04T03:15:27.825Z,46.5
2018-03-04T03:16:30.247Z,46.4
2018-03-04T03:17:32.938Z,46.5
2018-03-04T03:18:35.362Z,46.5
2018-03-04T03:19:37.775Z,46.5
2018-03-04T03:20:40.185Z,46.6
2018-03-04T03:21:42.889Z,46.7
2018-03-04T03:22:45.298Z,46.6
2018-03-04T03:23:47.710Z,46.7
2018-03-04T03:24:50.117Z,46.7
2018-03-04T03:25:52.526Z,46.8
2018-03-04T03:26:54.933Z,46.8
2018-03-04T03:27:57.349Z,46.7
2018-03-04T03:28:59.752Z,46.6
2018-03-04T03:30:02.164Z,46.8
2018-03-04T03:31:04.584Z,46.7
2018-03-04T03:32:06.999Z,46.6
2018-03-04T03:33:09.397Z,46.7
2018-03-04T03:34:11.805Z,46.7
2018-03-04T03:35:14.498Z,46.8
2018-03-04T03:36:16.908Z,46.8
2018-03-04T03:37:19.313Z,46.8
2018-03-04T03:38:21.719Z,46.9
2018-03-04T03:39:24.125Z,47
2018-03-04T03:40:26.860Z,47
2018-03-04T03:41:29.268Z,46.8
2018-03-04T03:42:31.972Z,46.9
2018-03-04T03:43:34.382Z,47
2018-03-04T03:44:37.098Z,47
2018-03-04T03:45:39.795Z,46.9
2018-03-04T03:46:42.219Z,46.9
2018-03-04T03:47:44.616Z,47.1
2018-03-04T03:48:47.026Z,47
2018-03-04T03:49:49.737Z,46.9
2018-03-04T03:50:52.434Z,46.8
2018-03-04T03:51:55.147Z,47
2018-03-04T03:52:57.848Z,46.9
2018-03-04T03:54:00.244Z,46.9
2018-03-04T03:55:02.962Z,46.8
2018-03-04T03:56:05.377Z,46.8
2018-03-04T03:57:07.770Z,46.8
2018-03-04T03:58:10.497Z,46.9
2018-03-04T03:59:12.907Z,46.8
2018-03-04T04:00:15.312Z,46.9
2018-03-04T04:01:17.731Z,46.8
2018-03-04T04:02:20.149Z,46.8
2018-03-04T04:03:22.848Z,46.9
2018-03-04T04:04:25.241Z,46.9
2018-03-04T04:05:28.240Z,47
2018-03-04T04:06:30.964Z,47
2018-03-04T04:07:33.373Z,47
2018-03-04T04:08:35.795Z,47.1
2018-03-04T04:09:38.195Z,47
2018-03-04T04:10:40.602Z,47.1
2018-03-04T04:11:43.022Z,47
2018-03-04T04:12:45.427Z,46.9
2018-03-04T04:13:47.826Z,47
2018-03-04T04:14:50.232Z,47
2018-03-04T04:15:52.639Z,47.1
2018-03-04T04:16:55.050Z,47.2
2018-03-04T04:17:57.463Z,47.2
2018-03-04T04:18:59.863Z,47.2
2018-03-04T04:20:02.869Z,47.2
2018-03-04T04:21:05.290Z,47.1
2018-03-04T04:22:07.981Z,47.1
2018-03-04T04:23:10.385Z,47
2018-03-04T04:24:12.796Z,47.2
2018-03-04T04:25:15.207Z,47
2018-03-04T04:26:17.628Z,47.2
2018-03-04T04:27:20.328Z,47.1
2018-03-04T04:28:22.721Z,47.3
2018-03-04T04:29:25.132Z,47.2
2018-03-04T04:30:27.543Z,47.2
2018-03-04T04:31:29.957Z,47.3
2018-03-04T04:32:32.658Z,47.3
2018-03-04T04:33:35.069Z,47.1
2018-03-04T04:34:37.772Z,47.2
2018-03-04T04:35:40.192Z,47.3
2018-03-04T04:36:42.603Z,47.2
2018-03-04T04:37:45.003Z,47.1
2018-03-04T04:38:47.411Z,47.1
2018-03-04T04:39:49.809Z,47.2
2018-03-04T04:40:52.516Z,47.2
2018-03-04T04:41:55.211Z,47.3
2018-03-04T04:42:57.618Z,47.4
2018-03-04T04:44:00.034Z,47.3
2018-03-04T04:45:02.452Z,47.2
2018-03-04T04:46:04.854Z,47.4
2018-03-04T04:47:07.275Z,47.2
2018-03-04T04:48:09.681Z,47.3
2018-03-04T04:49:12.090Z,47.3
2018-03-04T04:50:14.499Z,47.2
2018-03-04T04:51:16.904Z,47.4
2018-03-04T04:52:19.311Z,47.3
2018-03-04T04:53:21.726Z,47.3
2018-03-04T04:54:24.121Z,47.3
2018-03-04T04:55:26.532Z,47.2
2018-03-04T04:56:28.941Z,47.1
2018-03-04T04:57:31.351Z,47.2
2018-03-04T04:58:33.767Z,47.2
2018-03-04T04:59:36.176Z,47.2
2018-03-04T05:00:38.586Z,47.2
2018-03-04T05:01:41.288Z,47.3
2018-03-04T05:02:43.696Z,47.4
2018-03-04T05:03:46.699Z,47.4
2018-03-04T05:04:49.102Z,47.4
2018-03-04T05:05:51.807Z,47.3
2018-03-04T05:06:54.224Z,47.3
2018-03-04T05:07:56.921Z,47.4
2018-03-04T05:08:59.330Z,47.4
2018-03-04T05:10:02.042Z,47.3
2018-03-04T05:11:04.438Z,47.4
2018-03-04T05:12:06.854Z,47.4
2018-03-04T05:13:09.270Z,47.4
2018-03-04T05:14:11.674Z,47.3
2018-03-04T05:15:14.382Z,47.3
2018-03-04T05:16:16.793Z,47.3
2018-03-04T05:17:19.199Z,47.3
2018-03-04T05:18:21.611Z,47.4
2018-03-04T05:19:24.018Z,47.4
2018-03-04T05:20:26.419Z,47.4
2018-03-04T05:21:28.832Z,47.4
2018-03-04T05:22:31.525Z,47.5
2018-03-04T05:23:33.933Z,47.4
2018-03-04T05:24:36.349Z,47.4
2018-03-04T05:25:38.744Z,47.4
2018-03-04T05:26:41.158Z,47.5
2018-03-04T05:27:43.582Z,47.4
2018-03-04T05:28:46.280Z,47.5
2018-03-04T05:29:48.676Z,47.4
2018-03-04T05:30:51.091Z,47.5
2018-03-04T05:31:53.497Z,47.5
2018-03-04T05:32:55.899Z,47.5
2018-03-04T05:33:58.310Z,47.5
2018-03-04T05:35:01.029Z,47.6
2018-03-04T05:36:03.437Z,47.5
2018-03-04T05:37:05.842Z,47.5
2018-03-04T05:38:08.256Z,47.6
2018-03-04T05:39:10.663Z,47.7
2018-03-04T05:40:13.370Z,47.7
2018-03-04T05:41:16.075Z,47.6
2018-03-04T05:42:18.469Z,47.7
2018-03-04T05:43:20.879Z,47.6
2018-03-04T05:44:23.287Z,47.6
2018-03-04T05:45:25.699Z,47.6
2018-03-04T05:46:28.117Z,47.6
2018-03-04T05:47:30.521Z,47.6
2018-03-04T05:48:33.492Z,47.6
2018-03-04T05:49:35.907Z,47.5
2018-03-04T05:50:38.307Z,47.5
2018-03-04T05:51:41.014Z,47.4
2018-03-04T05:52:43.439Z,47.5
2018-03-04T05:53:45.827Z,47.6
2018-03-04T05:54:48.237Z,47.4
2018-03-04T05:55:50.946Z,47.4
2018-03-04T05:56:53.356Z,47.4
2018-03-04T05:57:55.768Z,47.4
2018-03-04T05:58:58.178Z,47.4
2018-03-04T06:00:00.880Z,47.2
2018-03-04T06:01:03.279Z,47.3
2018-03-04T06:02:05.690Z,47.4
2018-03-04T06:03:08.092Z,47.4
2018-03-04T06:04:10.790Z,47.4
2018-03-04T06:05:13.197Z,47.4
2018-03-04T06:06:15.906Z,47.5
2018-03-04T06:07:18.313Z,47.5
2018-03-04T06:08:21.026Z,47.5
2018-03-04T06:09:23.728Z,47.6
2018-03-04T06:10:26.136Z,47.6
2018-03-04T06:11:28.535Z,47.5
2018-03-04T06:12:30.946Z,47.4
2018-03-04T06:13:33.352Z,47.5
2018-03-04T06:14:35.761Z,47.4
2018-03-04T06:15:38.167Z,47.4
2018-03-04T06:16:40.863Z,47.6
2018-03-04T06:17:43.568Z,47.5
2018-03-04T06:18:45.973Z,47.5
2018-03-04T06:19:48.679Z,47.6
2018-03-04T06:20:51.087Z,47.6
2018-03-04T06:21:53.504Z,47.4
2018-03-04T06:22:55.912Z,47.5
2018-03-04T06:23:58.325Z,47.6
2018-03-04T06:25:00.733Z,47.6
2018-03-04T06:26:03.143Z,47.6
2018-03-04T06:27:05.559Z,47.6
2018-03-04T06:28:08.256Z,47.6
2018-03-04T06:29:10.663Z,47.5
2018-03-04T06:30:13.357Z,47.5
2018-03-04T06:31:15.759Z,47.5
2018-03-04T06:32:18.485Z,47.6
2018-03-04T06:33:20.902Z,47.6
2018-03-04T06:34:23.297Z,47.6
2018-03-04T06:35:25.711Z,47.6
2018-03-04T06:36:28.125Z,47.6
2018-03-04T06:37:31.101Z,47.5
2018-03-04T06:38:33.509Z,47.5
2018-03-04T06:39:35.915Z,47.4
2018-03-04T06:40:38.316Z,47.4
2018-03-04T06:41:40.744Z,47.4
2018-03-04T06:42:43.154Z,47.5
2018-03-04T06:43:45.847Z,47.5
2018-03-04T06:44:48.251Z,47.4
2018-03-04T06:45:50.968Z,47.5
2018-03-04T06:46:53.379Z,47.5
2018-03-04T06:47:55.791Z,47.6
2018-03-04T06:48:58.519Z,47.6
2018-03-04T06:50:00.954Z,47.5
2018-03-04T06:51:03.338Z,47.5
2018-03-04T06:52:05.746Z,47.5
2018-03-04T06:53:08.162Z,47.5
2018-03-04T06:54:10.566Z,47.6
2018-03-04T06:55:12.971Z,47.5
2018-03-04T06:56:15.388Z,47.5
2018-03-04T06:57:17.798Z,47.5
2018-03-04T06:58:21.269Z,47.6
2018-03-04T06:59:23.933Z,47.5
2018-03-04T07:00:26.504Z,47.6
2018-03-04T07:01:29.871Z,47.6
2018-03-04T07:02:33.032Z,47.6
2018-03-04T07:03:36.548Z,47.5
2018-03-04T07:04:38.967Z,47.4
2018-03-04T07:05:41.367Z,47.4
2018-03-04T07:06:44.361Z,47.5
2018-03-04T07:07:46.763Z,47.5
2018-03-04T07:08:49.175Z,47.5
2018-03-04T07:09:51.580Z,47.5
2018-03-04T07:10:53.997Z,47.4
2018-03-04T07:11:56.707Z,47.3
2018-03-04T07:12:59.132Z,47.4
2018-03-04T07:14:01.539Z,47.4
2018-03-04T07:15:04.553Z,47.3
2018-03-04T07:16:07.252Z,47.3
2018-03-04T07:17:09.654Z,47.3
2018-03-04T07:18:12.062Z,47.5
2018-03-04T07:19:14.517Z,47.4
2018-03-04T07:20:16.885Z,47.5
2018-03-04T07:21:19.891Z,47.5
2018-03-04T07:22:22.293Z,47.6
2018-03-04T07:23:24.990Z,47.4
2018-03-04T07:24:27.397Z,47.4
2018-03-04T07:25:30.117Z,47.4
2018-03-04T07:26:32.516Z,47.3
2018-03-04T07:27:34.929Z,47.2
2018-03-04T07:28:37.347Z,47.2
2018-03-04T07:29:39.805Z,47
2018-03-04T07:30:42.167Z,47.1
2018-03-04T07:31:44.588Z,47
2018-03-04T07:32:46.993Z,47.1
2018-03-04T07:33:49.411Z,47.2
2018-03-04T07:34:52.109Z,47.2
2018-03-04T07:35:54.798Z,47.2
2018-03-04T07:36:57.526Z,47.1
2018-03-04T07:37:59.937Z,47.2
2018-03-04T07:39:02.339Z,47.2
2018-03-04T07:40:04.762Z,47.4
2018-03-04T07:41:07.182Z,47.3
2018-03-04T07:42:09.876Z,47.3
2018-03-04T07:43:12.301Z,47.4
2018-03-04T07:44:14.718Z,47.4
2018-03-04T07:45:17.417Z,47.4
2018-03-04T07:46:20.142Z,47.3
2018-03-04T07:47:22.556Z,47.3
2018-03-04T07:48:24.970Z,47.3
2018-03-04T07:49:27.374Z,47.3
2018-03-04T07:50:29.801Z,47.2
2018-03-04T07:51:32.203Z,47.2
2018-03-04T07:52:34.670Z,47.2
2018-03-04T07:53:37.032Z,47.1
2018-03-04T07:54:39.450Z,47
2018-03-04T07:55:41.863Z,47
2018-03-04T07:56:44.289Z,46.9
2018-03-04T07:57:46.694Z,47
2018-03-04T07:58:49.122Z,47
2018-03-04T07:59:51.584Z,46.9
2018-03-04T08:00:53.972Z,47.1
2018-03-04T08:01:56.384Z,47.2
2018-03-04T08:02:58.807Z,47.2
2018-03-04T08:04:01.205Z,47.2
2018-03-04T08:05:03.618Z,47.3
2018-03-04T08:06:06.038Z,47.3
2018-03-04T08:07:08.445Z,47.4
2018-03-04T08:08:10.864Z,47.2
2018-03-04T08:09:13.269Z,47.1
2018-03-04T08:10:15.984Z,47.2
2018-03-04T08:11:18.402Z,47.4
2018-03-04T08:12:20.813Z,47.3
2018-03-04T08:13:23.221Z,47.2
2018-03-04T08:14:25.711Z,47.3
2018-03-04T08:15:28.353Z,47.2
2018-03-04T08:16:30.753Z,47.1
2018-03-04T08:17:33.165Z,47.1
2018-03-04T08:18:35.588Z,47.2
2018-03-04T08:19:37.989Z,47.2
2018-03-04T08:20:40.400Z,47.1
2018-03-04T08:21:42.802Z,47.1
2018-03-04T08:22:45.220Z,47.2
2018-03-04T08:23:47.671Z,47.1
2018-03-04T08:24:50.055Z,47.1
2018-03-04T08:25:52.466Z,47.2
2018-03-04T08:26:54.879Z,47.2
2018-03-04T08:27:57.288Z,47.1
2018-03-04T08:28:59.698Z,47.1
2018-03-04T08:30:02.392Z,47.2
2018-03-04T08:31:04.811Z,47.1
2018-03-04T08:32:07.222Z,47
2018-03-04T08:33:09.669Z,46.9
2018-03-04T08:34:12.053Z,46.9
2018-03-04T08:35:14.482Z,47.1
2018-03-04T08:36:16.890Z,47.1
2018-03-04T08:37:19.300Z,47.1
2018-03-04T08:38:21.707Z,47
2018-03-04T08:39:24.121Z,47
2018-03-04T08:40:27.104Z,47
2018-03-04T08:41:29.522Z,46.9
2018-03-04T08:42:31.924Z,46.9
2018-03-04T08:43:34.329Z,46.9
2018-03-04T08:44:36.740Z,46.9
2018-03-04T08:45:39.164Z,46.9
2018-03-04T08:46:41.567Z,47
2018-03-04T08:47:43.973Z,47.2
2018-03-04T08:48:46.388Z,47.2
2018-03-04T08:49:48.797Z,47.2
2018-03-04T08:50:51.218Z,47.1
2018-03-04T08:51:53.628Z,47
2018-03-04T08:52:56.322Z,47.1
2018-03-04T08:53:58.743Z,46.9
2018-03-04T08:55:01.155Z,46.9
2018-03-04T08:56:03.572Z,46.9
2018-03-04T08:57:05.984Z,47
2018-03-04T08:58:08.394Z,47
2018-03-04T08:59:10.807Z,47.1
2018-03-04T09:00:13.219Z,47.2
2018-03-04T09:01:15.635Z,47.2
2018-03-04T09:02:18.373Z,47.1
2018-03-04T09:03:20.760Z,47.2
2018-03-04T09:04:23.464Z,47.1
2018-03-04T09:05:26.188Z,47
2018-03-04T09:06:28.877Z,46.9
2018-03-04T09:07:31.291Z,46.9
2018-03-04T09:08:33.699Z,46.9
2018-03-04T09:09:36.169Z,47.1
2018-03-04T09:10:38.529Z,47
2018-03-04T09:11:40.938Z,47
2018-03-04T09:12:43.368Z,46.8
2018-03-04T09:13:45.765Z,46.8
2018-03-04T09:14:48.202Z,46.8
2018-03-04T09:15:50.591Z,46.8
2018-03-04T09:16:53.008Z,46.8
2018-03-04T09:17:55.417Z,47
2018-03-04T09:18:58.109Z,47
2018-03-04T09:20:00.535Z,47.1
2018-03-04T09:21:03.225Z,47.3
2018-03-04T09:22:05.646Z,47.3
2018-03-04T09:23:08.068Z,47.4
2018-03-04T09:24:10.473Z,47.2
2018-03-04T09:25:12.891Z,47.5
2018-03-04T09:26:15.306Z,47.4
2018-03-04T09:27:17.715Z,47.6
2018-03-04T09:28:20.129Z,48.1
2018-03-04T09:29:22.554Z,48.3
2018-03-04T09:30:24.975Z,48.3
2018-03-04T09:31:27.391Z,48.2
2018-03-04T09:32:30.120Z,48.2
2018-03-04T09:33:32.540Z,48
2018-03-04T09:34:34.956Z,48
2018-03-04T09:35:37.367Z,47.9
2018-03-04T09:36:39.781Z,47.8
2018-03-04T09:37:42.183Z,47.8
2018-03-04T09:38:44.598Z,48.2
2018-03-04T09:39:47.027Z,48.6
2018-03-04T09:40:49.445Z,48.9
2018-03-04T09:41:51.863Z,49.2
2018-03-04T09:42:54.284Z,49.7
2018-03-04T09:43:56.695Z,49.7
2018-03-04T09:44:59.127Z,49.7
2018-03-04T09:46:01.546Z,49.6
2018-03-04T09:47:03.960Z,49.2
2018-03-04T09:48:06.385Z,49.2
2018-03-04T09:49:08.797Z,49.2
2018-03-04T09:50:11.219Z,48.8
2018-03-04T09:51:13.649Z,48.7
2018-03-04T09:52:16.059Z,48.7
2018-03-04T09:53:18.774Z,48.8
2018-03-04T09:54:21.194Z,48.5
2018-03-04T09:55:23.607Z,48.5
2018-03-04T09:56:26.024Z,48.5
2018-03-04T09:57:28.448Z,48.4
2018-03-04T09:58:30.874Z,48.7
2018-03-04T09:59:33.299Z,48.7
2018-03-04T10:00:35.721Z,48.6
2018-03-04T10:01:38.449Z,48.7
2018-03-04T10:02:40.868Z,48.3
2018-03-04T10:03:43.572Z,48
2018-03-04T10:04:46.005Z,47.9
2018-03-04T10:05:48.422Z,47.8
2018-03-04T10:06:50.844Z,47.4
2018-03-04T10:07:53.554Z,47.1
2018-03-04T10:08:55.965Z,46.4
2018-03-04T10:09:58.388Z,46.4
2018-03-04T10:11:00.831Z,46.5
2018-03-04T10:12:03.231Z,46.8
2018-03-04T10:13:05.647Z,46.9
2018-03-04T10:14:08.386Z,47.1
2018-03-04T10:15:10.805Z,46.8
2018-03-04T10:16:13.239Z,46.3
2018-03-04T10:17:15.667Z,46.3
2018-03-04T10:18:18.074Z,46.4
2018-03-04T10:19:20.511Z,46.8
2018-03-04T10:20:22.968Z,46.9
2018-03-04T10:21:25.357Z,46.7
2018-03-04T10:22:27.783Z,46.1
2018-03-04T10:23:30.205Z,46.1
2018-03-04T10:24:32.620Z,46
2018-03-04T10:25:35.059Z,45.6
2018-03-04T10:26:37.482Z,45.4
2018-03-04T10:27:39.927Z,45.4
2018-03-04T10:28:42.351Z,45.5
2018-03-04T10:29:44.762Z,45.4
2018-03-04T10:30:47.180Z,45.4
2018-03-04T10:31:49.893Z,44.9
2018-03-04T10:32:52.320Z,44.7
2018-03-04T10:33:54.745Z,44.9
2018-03-04T10:34:57.162Z,45.1
2018-03-04T10:35:59.879Z,45.1
2018-03-04T10:37:02.316Z,45
2018-03-04T10:38:04.746Z,45.2
2018-03-04T10:39:07.172Z,45.2
2018-03-04T10:40:09.600Z,45.3
2018-03-04T10:41:12.030Z,45.2
2018-03-04T10:42:14.464Z,44.9
2018-03-04T10:43:17.180Z,44.9
2018-03-04T10:44:19.612Z,44.9
2018-03-04T10:45:22.036Z,44
2018-03-04T10:46:24.459Z,43.5
2018-03-04T10:47:26.890Z,43
2018-03-04T10:48:29.317Z,43.4
2018-03-04T10:49:31.731Z,43.4
2018-03-04T10:50:34.150Z,43.4
2018-03-04T10:51:36.594Z,43.1
2018-03-04T10:52:39.017Z,43.4
2018-03-04T10:53:41.744Z,43.4
2018-03-04T10:54:44.176Z,43.3
2018-03-04T10:55:46.607Z,43.2
2018-03-04T10:56:49.034Z,43.3
2018-03-04T10:57:51.749Z,43.3
2018-03-04T10:58:54.181Z,43
2018-03-04T10:59:56.603Z,42.7
2018-03-04T11:00:59.024Z,42.6
2018-03-04T11:02:01.450Z,42.6
2018-03-04T11:03:03.889Z,42.4
2018-03-04T11:04:06.316Z,42.3
2018-03-04T11:05:08.752Z,41.9
2018-03-04T11:06:11.750Z,41.7
2018-03-04T11:07:14.473Z,41.8
2018-03-04T11:08:17.180Z,41.7
2018-03-04T11:09:19.606Z,41.9
2018-03-04T11:10:22.021Z,41.7
2018-03-04T11:11:24.461Z,41.8
2018-03-04T11:12:26.891Z,41.7
2018-03-04T11:13:29.324Z,41.8
2018-03-04T11:14:32.037Z,41.7
2018-03-04T11:15:34.759Z,41.7
2018-03-04T11:16:37.178Z,41.7
2018-03-04T11:17:39.620Z,41.7
2018-03-04T11:18:42.039Z,41.8
2018-03-04T11:19:44.462Z,42
2018-03-04T11:20:46.893Z,41.7
2018-03-04T11:21:49.331Z,41.5
2018-03-04T11:22:52.045Z,41.1
2018-03-04T11:23:54.479Z,41.1
2018-03-04T11:24:57.175Z,41.3
2018-03-04T11:25:59.889Z,41.3
2018-03-04T11:27:02.631Z,40.8
2018-03-04T11:28:05.631Z,40.9
2018-03-04T11:29:08.061Z,40.9
2018-03-04T11:30:10.485Z,40.9
2018-03-04T11:31:13.200Z,40.8
2018-03-04T11:32:15.620Z,40.9
2018-03-04T11:33:18.059Z,40.9
2018-03-04T11:34:20.488Z,40.9
2018-03-04T11:35:22.922Z,40.8
2018-03-04T11:36:25.353Z,40.6
2018-03-04T11:37:27.781Z,40.6
2018-03-04T11:38:30.489Z,40.6
2018-03-04T11:39:33.242Z,40.5
2018-03-04T11:40:35.682Z,40.7
2018-03-04T11:41:38.101Z,40.9
2018-03-04T11:42:40.799Z,40.8
2018-03-04T11:43:43.235Z,41.1
2018-03-04T11:44:45.658Z,41.2
2018-03-04T11:45:48.088Z,41.2
2018-03-04T11:46:50.509Z,41
2018-03-04T11:47:52.945Z,40.8
2018-03-04T11:48:55.365Z,40.7
2018-03-04T11:49:57.804Z,40.4
2018-03-04T11:51:00.238Z,40.2
2018-03-04T11:52:02.664Z,39.7
2018-03-04T11:53:05.097Z,39.7
2018-03-04T11:54:07.528Z,39.9
2018-03-04T11:55:09.951Z,40.4
2018-03-04T11:56:12.387Z,40.6
2018-03-04T11:57:14.814Z,40.8
2018-03-04T11:58:17.538Z,40.7
2018-03-04T11:59:19.970Z,40.4
2018-03-04T12:00:22.382Z,40.3
2018-03-04T12:01:24.808Z,40.2
2018-03-04T12:02:27.246Z,40
2018-03-04T12:03:29.672Z,39.8
2018-03-04T12:04:32.098Z,40
2018-03-04T12:05:34.520Z,40
2018-03-04T12:06:36.944Z,40
2018-03-04T12:07:39.383Z,40.2
2018-03-04T12:08:41.813Z,39.9
2018-03-04T12:09:44.273Z,39.8
2018-03-04T12:10:46.663Z,40
2018-03-04T12:11:49.096Z,40
2018-03-04T12:12:51.538Z,40
2018-03-04T12:13:53.967Z,39.9
2018-03-04T12:14:56.678Z,39.7
2018-03-04T12:15:59.108Z,39.7
2018-03-04T12:17:01.538Z,39.1
2018-03-04T12:18:04.778Z,38.9
2018-03-04T12:19:08.199Z,38.7
2018-03-04T12:20:11.735Z,38.8
2018-03-04T12:21:15.596Z,39.1
2018-03-04T12:22:18.921Z,39
2018-03-04T12:23:21.634Z,38.9
2018-03-04T12:24:24.058Z,38.9
2018-03-04T12:25:26.840Z,38.8
2018-03-04T12:26:29.842Z,38.8
2018-03-04T12:27:32.280Z,38.8
2018-03-04T12:28:34.715Z,38.5
2018-03-04T12:29:37.153Z,38.7
2018-03-04T12:30:39.593Z,38.8
2018-03-04T12:31:42.026Z,38.7
2018-03-04T12:32:44.450Z,38.9
2018-03-04T12:33:47.990Z,38.9
2018-03-04T12:34:52.737Z,38.8
2018-03-04T12:35:55.928Z,38.3
2018-03-04T12:36:59.323Z,38.2
2018-03-04T12:38:03.556Z,38.2
2018-03-04T12:39:07.050Z,38.5
2018-03-04T12:40:10.892Z,38.7
2018-03-04T12:41:16.982Z,38.8
2018-03-04T12:42:19.493Z,38.8
2018-03-04T12:43:22.093Z,38.8
2018-03-04T12:44:24.964Z,38.5
2018-03-04T12:45:27.399Z,38.3
2018-03-04T12:46:29.830Z,38.4
2018-03-04T12:47:32.306Z,38.2
2018-03-04T12:48:34.699Z,37.9
2018-03-04T12:49:37.719Z,37.9
2018-03-04T12:50:40.141Z,38.2
2018-03-04T12:51:42.573Z,38.2
2018-03-04T12:52:45.300Z,38
2018-03-04T12:53:47.729Z,37.7
2018-03-04T12:54:50.152Z,37.8
2018-03-04T12:55:52.596Z,37.9
2018-03-04T12:56:55.032Z,38
2018-03-04T12:57:57.450Z,37.8
2018-03-04T12:58:59.885Z,37.7
2018-03-04T13:00:02.328Z,37.3
2018-03-04T13:01:05.320Z,37.4
2018-03-04T13:02:07.758Z,37.5
2018-03-04T13:03:10.180Z,37.6
2018-03-04T13:04:12.612Z,37.8
2018-03-04T13:05:15.052Z,37.7
2018-03-04T13:06:17.485Z,37.6
2018-03-04T13:07:19.908Z,37.5
2018-03-04T13:08:22.342Z,37.5
2018-03-04T13:09:25.049Z,37.5
2018-03-04T13:10:27.482Z,37.7
2018-03-04T13:11:29.905Z,38
2018-03-04T13:12:32.326Z,38.1
2018-03-04T13:13:34.760Z,38
2018-03-04T13:14:37.193Z,38
2018-03-04T13:15:39.648Z,38
2018-03-04T13:16:42.094Z,38.2
2018-03-04T13:17:44.477Z,37.9
2018-03-04T13:18:46.903Z,37.6
2018-03-04T13:19:49.625Z,37.6
2018-03-04T13:20:52.050Z,37.6
2018-03-04T13:21:54.479Z,37.7
2018-03-04T13:22:57.223Z,37.8
2018-03-04T13:23:59.659Z,38
2018-03-04T13:25:02.106Z,38
2018-03-04T13:26:04.538Z,38.1
2018-03-04T13:27:06.973Z,38.2
2018-03-04T13:28:09.414Z,38.1
2018-03-04T13:29:11.832Z,38.1
2018-03-04T13:30:14.544Z,37.9
2018-03-04T13:31:17.564Z,37.7
2018-03-04T13:32:19.983Z,37.8
2018-03-04T13:33:22.413Z,37.7
2018-03-04T13:34:24.882Z,37.6
2018-03-04T13:35:27.282Z,37.5
2018-03-04T13:36:30.030Z,37.1
2018-03-04T13:37:32.775Z,37.2
2018-03-04T13:38:35.188Z,37.1
2018-03-04T13:39:37.641Z,37.1
2018-03-04T13:40:40.401Z,37.1
2018-03-04T13:41:42.783Z,37.2
2018-03-04T13:42:45.223Z,37.3
2018-03-04T13:43:47.939Z,37
2018-03-04T13:44:50.369Z,36.9
2018-03-04T13:45:52.803Z,37
2018-03-04T13:46:55.223Z,37
2018-03-04T13:47:57.663Z,37
2018-03-04T13:49:00.090Z,36.9
2018-03-04T13:50:02.805Z,36.7
2018-03-04T13:51:05.238Z,36.7
2018-03-04T13:52:07.684Z,37
2018-03-04T13:53:10.105Z,37.2
2018-03-04T13:54:12.543Z,37.2
2018-03-04T13:55:14.973Z,37.3
2018-03-04T13:56:17.411Z,37.1
2018-03-04T13:57:19.845Z,37.3
2018-03-04T13:58:22.267Z,37.3
2018-03-04T13:59:24.701Z,37.1